Time;durP1;ratioP1;P1;durP2;ratioP2;P2;SDS_P1;SDS_P2;PMS_P1;PMS_P2;Temp;Humidity;BMP_temperature;BMP_pressure;BME280_temperature;BME280_humidity;BME280_pressure;Samples;Min_cycle;Max_cycle;Signal;HPM_P1;HPM_P2
2022/03/02 00:04:53;;;;;;;54.80;50.00;;;;;;;8.64;100.00;102408.63;1837978;75;86327;-76
2022/03/02 00:10:47;;;;;;;52.97;48.37;;;;;;;8.71;100.00;102404.40;1873851;75;86303;-76
2022/03/02 00:16:31;;;;;;;52.57;47.87;;;;;;;8.65;100.00;102393.70;1818066;78;86240;-79
2022/03/02 00:22:15;;;;;;;53.67;48.67;;;;;;;8.64;100.00;102389.23;1810239;78;86186;-79
2022/03/02 00:28:02;;;;;;;55.50;50.40;;;;;;;8.72;100.00;102395.55;1795148;79;86175;-75
2022/03/02 00:33:47;;;;;;;53.27;48.37;;;;;;;8.67;100.00;102386.02;1851024;76;85499;-78
2022/03/02 00:39:31;;;;;;;54.37;49.50;;;;;;;8.76;100.00;102382.91;1854734;76;86758;-75
2022/03/02 00:45:16;;;;;;;58.40;53.23;;;;;;;8.75;100.00;102379.30;1809521;78;86398;-75
2022/03/02 00:51:03;;;;;;;55.80;50.43;;;;;;;8.67;100.00;102376.33;1801637;78;85828;-76
2022/03/02 00:56:47;;;;;;;58.57;53.10;;;;;;;8.74;100.00;102378.98;1892708;74;85596;-77
2022/03/02 01:02:32;;;;;;;54.83;49.47;;;;;;;8.74;100.00;102369.29;1920498;72;85469;-76
2022/03/02 01:08:14;;;;;;;59.43;53.77;;;;;;;8.78;100.00;102373.27;1847224;76;86534;-76
2022/03/02 01:14:07;;;;;;;61.90;55.63;;;;;;;8.77;100.00;102365.22;1822868;78;85705;-76
2022/03/02 01:19:58;;;;;;;63.13;56.83;;;;;;;8.83;100.00;102361.48;1888944;75;86126;-76
2022/03/02 01:25:44;;;;;;;63.07;56.57;;;;;;;8.74;100.00;102358.74;1857978;75;86754;-75
2022/03/02 01:31:28;;;;;;;72.80;65.20;;;;;;;8.77;100.00;102350.80;1984490;71;40413;-79
2022/03/02 01:37:13;;;;;;;78.10;65.63;;;;;;;8.76;100.00;102350.52;1851419;75;85977;-79
2022/03/02 01:42:58;;;;;;;73.63;64.23;;;;;;;8.74;100.00;102347.12;1903499;74;86250;-77
2022/03/02 01:48:44;;;;;;;79.73;70.77;;;;;;;8.79;100.00;102333.41;1808414;77;85597;-76
2022/03/02 01:54:29;;;;;;;88.03;75.13;;;;;;;8.73;100.00;102330.19;1983287;71;39484;-76
2022/03/02 02:00:15;;;;;;;92.67;78.53;;;;;;;8.67;100.00;102322.84;1839463;75;86478;-79
2022/03/02 02:05:59;;;;;;;106.37;83.87;;;;;;;8.71;100.00;102325.44;1838718;76;85935;-75
2022/03/02 02:11:43;;;;;;;110.70;87.13;;;;;;;8.62;100.00;102307.47;1810173;77;86611;-77
2022/03/02 02:17:27;;;;;;;111.10;87.90;;;;;;;8.63;100.00;102307.78;1974804;71;39559;-76
2022/03/02 02:23:14;;;;;;;130.20;96.67;;;;;;;8.61;100.00;102298.84;1840392;76;87129;-77
2022/03/02 02:29:10;;;;;;;135.67;97.77;;;;;;;8.50;100.00;102298.29;1973285;71;86100;-76
2022/03/02 02:34:54;;;;;;;133.67;99.67;;;;;;;8.48;100.00;102302.66;1912454;73;86224;-75
2022/03/02 02:40:38;;;;;;;140.73;99.93;;;;;;;8.45;100.00;102303.69;1933442;71;86250;-75
2022/03/02 02:46:22;;;;;;;139.40;100.57;;;;;;;8.43;100.00;102297.55;1951439;71;39805;-77
2022/03/02 02:52:07;;;;;;;144.37;100.03;;;;;;;8.37;100.00;102292.95;1832706;76;86396;-75
2022/03/02 02:57:52;;;;;;;147.77;108.30;;;;;;;8.39;100.00;102288.00;1871508;75;86608;-76
2022/03/02 03:03:36;;;;;;;148.43;106.73;;;;;;;8.32;100.00;102283.96;1925067;73;86508;-76
2022/03/02 03:09:19;;;;;;;149.70;105.27;;;;;;;8.33;100.00;102283.42;1981310;71;39543;-75
2022/03/02 03:15:06;;;;;;;146.43;103.97;;;;;;;8.23;100.00;102282.56;1896442;74;86655;-76
2022/03/02 03:20:50;;;;;;;146.70;103.43;;;;;;;8.26;100.00;102280.70;1893882;75;86157;-78
2022/03/02 03:26:34;;;;;;;139.43;102.43;;;;;;;8.20;100.00;102279.73;1913338;73;86275;-75
2022/03/02 03:32:19;;;;;;;145.30;102.40;;;;;;;8.18;100.00;102270.81;1986916;71;39727;-76
2022/03/02 03:38:04;;;;;;;147.80;103.33;;;;;;;8.10;100.00;102267.52;1909439;74;86355;-76
2022/03/02 03:43:49;;;;;;;140.93;104.90;;;;;;;8.22;100.00;102261.48;1802244;78;86264;-75
2022/03/02 03:49:33;;;;;;;139.17;100.20;;;;;;;8.06;100.00;102265.77;1940555;72;86233;-76
2022/03/02 03:55:19;;;;;;;142.37;98.87;;;;;;;8.06;100.00;102262.16;1986162;71;39674;-75
2022/03/02 04:01:03;;;;;;;135.93;98.53;;;;;;;8.07;100.00;102268.00;1882905;74;85365;-76
2022/03/02 04:06:46;;;;;;;143.10;100.20;;;;;;;8.02;100.00;102257.64;1874742;75;84997;-75
2022/03/02 04:12:30;;;;;;;138.00;97.10;;;;;;;8.03;100.00;102259.33;1973004;71;39506;-76
2022/03/02 04:18:15;;;;;;;133.00;97.53;;;;;;;8.03;100.00;102246.87;1842869;76;86924;-78
2022/03/02 04:23:59;;;;;;;133.27;99.63;;;;;;;8.12;100.00;102241.86;1826378;77;86350;-78
2022/03/02 04:29:43;;;;;;;140.93;92.97;;;;;;;8.07;100.00;102235.64;1863441;74;86425;-75
2022/03/02 04:35:28;;;;;;;143.43;94.57;;;;;;;8.00;100.00;102230.72;1977320;71;40278;-75
2022/03/02 04:41:12;;;;;;;137.20;95.43;;;;;;;8.08;100.00;102229.58;1893728;74;86065;-74
2022/03/02 04:46:56;;;;;;;135.00;94.80;;;;;;;8.02;100.00;102228.58;1903517;74;86027;-77
2022/03/02 04:52:41;;;;;;;135.63;94.37;;;;;;;8.04;100.00;102219.52;1873373;75;86318;-75
2022/03/02 04:58:26;;;;;;;134.93;94.87;;;;;;;8.04;100.00;102219.52;1948148;71;39634;-77
2022/03/02 05:04:10;;;;;;;135.97;90.40;;;;;;;8.04;100.00;102215.37;1844322;76;86242;-76
2022/03/02 05:09:53;;;;;;;139.73;89.40;;;;;;;8.04;100.00;102209.83;1871975;75;86751;-74
2022/03/02 05:15:40;;;;;;;131.07;89.57;;;;;;;7.97;100.00;102213.22;1882568;75;86232;-76
2022/03/02 05:21:24;;;;;;;135.27;89.97;;;;;;;8.01;100.00;102209.44;1986562;71;39539;-76
2022/03/02 05:27:08;;;;;;;121.60;91.13;;;;;;;7.98;100.00;102199.69;1965621;70;86228;-76
2022/03/02 05:32:53;;;;;;;135.43;89.73;;;;;;;7.94;100.00;102199.02;1871177;75;86709;-75
2022/03/02 05:41:43;;;;;;;132.40;89.70;;;;;;;8.01;100.00;102196.98;1919431;74;86317;-76
2022/03/02 05:44:14;;;;;;;131.72;92.00;;;;;;;7.94;100.00;102205.93;1887975;74;938814;-76
2022/03/02 05:46:44;;;;;;;126.63;88.00;;;;;;;7.96;100.00;102197.69;1906627;74;940825;-76
2022/03/02 05:49:14;;;;;;;127.15;92.02;;;;;;;8.02;100.00;102205.06;1893993;74;940875;-76
2022/03/02 05:51:45;;;;;;;125.20;88.60;;;;;;;7.94;100.00;102208.70;1906453;74;940751;-76
2022/03/02 05:54:15;;;;;;;123.70;88.93;;;;;;;7.94;100.00;102210.08;1890765;73;941000;-75
2022/03/02 05:56:46;;;;;;;126.67;88.20;;;;;;;7.96;100.00;102200.45;1904081;73;940765;-76
2022/03/02 05:59:17;;;;;;;122.82;89.40;;;;;;;8.00;100.00;102205.00;1888129;74;941023;-75
2022/03/02 06:01:47;;;;;;;123.47;87.53;;;;;;;7.97;100.00;102204.06;1902095;73;940849;-76
2022/03/02 06:07:31;;;;;;;129.50;91.87;;;;;;;7.96;100.00;102189.95;1950947;73;86153;-77
2022/03/02 06:13:16;;;;;;;119.77;85.73;;;;;;;7.97;100.00;102191.08;1802469;78;86265;-76
2022/03/02 06:19:03;;;;;;;124.57;86.57;;;;;;;8.04;100.00;102196.00;1805552;78;86749;-75
2022/03/02 06:24:51;;;;;;;117.00;83.50;;;;;;;7.99;100.00;102202.77;1871835;74;86229;-76
2022/03/02 06:30:34;;;;;;;116.20;86.20;;;;;;;8.00;100.00;102201.67;1941096;73;86585;-76
2022/03/02 06:36:20;;;;;;;120.03;85.03;;;;;;;8.00;100.00;102202.23;1980050;71;39676;-74
2022/03/02 06:42:12;;;;;;;109.63;81.17;;;;;;;7.98;100.00;102207.99;1904371;74;85528;-78
2022/03/02 06:48:03;;;;;;;113.73;83.00;;;;;;;8.01;100.00;102203.36;1800021;78;86618;-76
2022/03/02 06:53:48;;;;;;;110.67;82.40;;;;;;;7.99;100.00;102205.54;1849936;76;86755;-75
2022/03/02 06:59:37;;;;;;;104.97;79.67;;;;;;;7.98;100.00;102209.37;1909471;74;86325;-78
2022/03/02 07:05:22;;;;;;;104.93;81.87;;;;;;;7.98;100.00;102214.91;1923164;72;39599;-76
2022/03/02 07:11:05;;;;;;;104.03;82.30;;;;;;;7.98;100.00;102216.30;1888835;74;86585;-74
2022/03/02 07:16:51;;;;;;;99.33;83.00;;;;;;;8.04;100.00;102220.05;1873006;75;85434;-76
2022/03/02 07:25:44;;;;;;;94.00;81.20;;;;;;;8.07;100.00;102224.58;1940213;73;86151;-75
2022/03/02 07:28:16;;;;;;;95.97;78.28;;;;;;;8.02;100.00;102232.73;1858212;74;936750;-75
2022/03/02 07:30:49;;;;;;;91.53;81.53;;;;;;;8.03;100.00;102230.81;1806204;77;938705;-76
2022/03/02 07:33:22;;;;;;;93.60;83.30;;;;;;;8.00;100.00;102230.72;1799413;77;938839;-75
2022/03/02 07:35:58;;;;;;;90.40;78.17;;;;;;;8.00;100.00;102228.52;1824943;76;936945;-76
2022/03/02 07:38:29;;;;;;;97.90;82.80;;;;;;;8.01;100.00;102234.34;1785784;77;938909;-75
2022/03/02 07:41:02;;;;;;;94.00;83.83;;;;;;;8.02;100.00;102234.65;1830637;75;936779;-76
2022/03/02 07:43:36;;;;;;;98.80;79.47;;;;;;;8.03;100.00;102237.19;1784026;77;938848;-75
2022/03/02 07:49:20;;;;;;;104.73;88.90;;;;;;;8.04;100.00;102225.59;1947903;71;39762;-79
2022/03/02 07:55:10;;;;;;;98.83;87.37;;;;;;;8.09;100.00;102221.55;1842184;76;86512;-78
2022/03/02 08:00:56;;;;;;;98.43;85.37;;;;;;;8.02;100.00;102228.58;1870980;75;86556;-76
2022/03/02 08:09:46;;;;;;;103.37;86.37;;;;;;;8.12;100.00;102222.48;1942853;73;86233;-74
2022/03/02 08:12:18;;;;;;;99.62;86.12;;;;;;;8.13;100.00;102227.77;1861359;75;938789;-74
2022/03/02 08:14:49;;;;;;;102.03;84.93;;;;;;;8.09;100.00;102229.31;1902842;73;938727;-78
2022/03/02 08:17:21;;;;;;;102.37;90.77;;;;;;;8.07;100.00;102229.26;1851618;74;940748;-77
2022/03/02 08:19:52;;;;;;;107.40;93.50;;;;;;;8.12;100.00;102227.48;1858715;76;939038;-78
2022/03/02 08:22:24;;;;;;;108.95;90.20;;;;;;;8.12;100.00;102224.72;1816196;76;940764;-79
2022/03/02 08:28:13;;;;;;;106.97;91.40;;;;;;;8.15;100.00;102217.86;1892433;74;86012;-77
2022/03/02 08:34:01;;;;;;;110.73;98.63;;;;;;;8.17;100.00;102212.94;1880433;75;86657;-75
2022/03/02 08:39:46;;;;;;;111.17;93.57;;;;;;;8.06;100.00;102215.96;1866068;75;85453;-77
2022/03/02 08:45:29;;;;;;;120.97;94.83;;;;;;;8.08;100.00;102213.81;1978803;71;39557;-77
2022/03/02 08:51:14;;;;;;;120.97;97.43;;;;;;;8.07;100.00;102213.50;1839295;76;85493;-76
2022/03/02 08:57:02;;;;;;;122.53;96.57;;;;;;;8.15;100.00;102221.47;1809569;78;86604;-77
2022/03/02 09:02:49;;;;;;;122.23;98.37;;;;;;;8.17;100.00;102222.06;1882535;75;85367;-78
2022/03/02 09:08:33;;;;;;;123.13;94.53;;;;;;;8.16;100.00;102212.63;1909931;73;86159;-77
2022/03/02 09:14:19;;;;;;;127.07;99.67;;;;;;;8.28;100.00;102211.27;1894415;74;86255;-76
2022/03/02 09:20:06;;;;;;;128.67;102.83;;;;;;;8.26;100.00;102212.06;1893622;74;86101;-77
2022/03/02 09:25:53;;;;;;;126.53;103.17;;;;;;;8.28;100.00;102212.66;1890316;73;86204;-76
2022/03/02 09:31:44;;;;;;;130.43;105.17;;;;;;;8.21;100.00;102208.05;1912408;74;86618;-79
2022/03/02 09:37:27;;;;;;;130.70;102.17;;;;;;;8.39;100.00;102199.40;1978813;71;39570;-77
2022/03/02 09:43:15;;;;;;;129.40;103.00;;;;;;;8.35;100.00;102211.49;1844508;76;86486;-77
2022/03/02 09:49:04;;;;;;;125.07;102.60;;;;;;;8.32;100.00;102200.91;1837273;76;86526;-75
2022/03/02 09:54:53;;;;;;;118.50;104.57;;;;;;;8.39;100.00;102206.32;1878044;75;86228;-75
2022/03/02 10:00:38;;;;;;;119.90;98.30;;;;;;;8.35;100.00;102208.72;1920062;73;86646;-77
2022/03/02 10:06:22;;;;;;;115.47;95.27;;;;;;;8.37;100.00;102200.19;1946832;71;39472;-76
2022/03/02 10:12:10;;;;;;;112.50;96.87;;;;;;;8.32;100.00;102206.98;1850439;76;86648;-76
2022/03/02 10:17:58;;;;;;;110.73;94.87;;;;;;;8.39;100.00;102205.78;1904524;73;86023;-78
2022/03/02 10:23:46;;;;;;;102.77;91.47;;;;;;;8.33;100.00;102212.28;1863483;75;86286;-77
2022/03/02 10:29:38;;;;;;;101.40;90.30;;;;;;;8.30;100.00;102214.13;1869582;76;85478;-76
2022/03/02 10:35:23;;;;;;;102.30;91.43;;;;;;;8.37;100.00;102211.27;1987326;71;39587;-76
2022/03/02 10:41:10;;;;;;;101.77;90.60;;;;;;;8.30;100.00;102208.59;1847681;76;86268;-75
2022/03/02 10:50:13;;;;;;;99.27;88.30;;;;;;;8.29;100.00;102198.63;1974147;71;85972;-77
2022/03/02 10:55:59;;;;;;;94.63;84.97;;;;;;;8.24;100.00;102200.68;1900324;74;86010;-75
2022/03/02 11:01:45;;;;;;;96.40;86.40;;;;;;;8.26;100.00;102196.84;1874913;75;86062;-77
2022/03/02 11:07:29;;;;;;;96.50;86.60;;;;;;;8.40;100.00;102192.25;1970491;71;39499;-78
2022/03/02 11:13:15;;;;;;;95.80;85.87;;;;;;;8.33;100.00;102189.30;1844387;76;86220;-78
2022/03/02 11:19:13;;;;;;;91.73;82.53;;;;;;;8.39;100.00;102184.17;1909126;74;86204;-77
2022/03/02 11:25:00;;;;;;;90.70;81.40;;;;;;;8.47;100.00;102179.69;1887500;74;85644;-75
2022/03/02 11:30:54;;;;;;;92.37;82.83;;;;;;;8.37;100.00;102177.50;1806950;77;86628;-75
2022/03/02 11:36:45;;;;;;;90.00;80.77;;;;;;;8.45;100.00;102169.38;1913495;72;85378;-79
2022/03/02 11:42:32;;;;;;;91.10;81.23;;;;;;;8.44;100.00;102169.08;1984487;71;39567;-77
2022/03/02 11:48:17;;;;;;;84.33;75.13;;;;;;;8.67;100.00;102164.95;1810999;78;85319;-76
2022/03/02 11:54:44;;;;;;;86.27;77.77;;;;;;;8.45;100.00;102166.61;1978052;71;39669;-77
2022/03/02 12:00:30;;;;;;;86.07;77.67;;;;;;;8.70;100.00;102167.23;1926769;71;40340;-76
2022/03/02 12:06:18;;;;;;;88.67;80.47;;;;;;;8.81;100.00;102158.63;1835387;76;86606;-75
2022/03/02 12:12:16;;;;;;;84.40;76.33;;;;;;;8.72;100.00;102158.69;1839830;76;85305;-76
2022/03/02 12:18:11;;;;;;;86.43;78.67;;;;;;;9.03;100.00;102147.20;1810363;78;86022;-75
2022/03/02 12:24:01;;;;;;;84.10;76.53;;;;;;;8.99;100.00;102134.91;1808129;78;86477;-76
2022/03/02 12:29:47;;;;;;;87.27;79.47;;;;;;;8.86;100.00;102126.31;1808750;77;86356;-76
2022/03/02 12:35:33;;;;;;;83.63;76.43;;;;;;;8.89;100.00;102121.70;1863711;76;86457;-76
2022/03/02 12:41:23;;;;;;;84.47;76.97;;;;;;;8.89;100.00;102116.16;1985355;71;39708;-77
2022/03/02 12:47:11;;;;;;;85.43;77.83;;;;;;;9.04;100.00;102110.09;1851812;76;86278;-75
2022/03/02 12:52:57;;;;;;;85.63;77.93;;;;;;;9.08;100.00;102105.73;1875720;74;85424;-76
2022/03/02 12:58:43;;;;;;;81.63;74.73;;;;;;;8.94;100.00;102099.62;1808578;78;86286;-76
2022/03/02 13:04:32;;;;;;;81.77;74.67;;;;;;;9.09;100.00;102088.03;1972175;71;39646;-77
2022/03/02 13:10:18;;;;;;;82.93;75.43;;;;;;;9.05;100.00;102090.99;1831433;75;86865;-77
2022/03/02 13:16:21;;;;;;;85.30;77.83;;;;;;;9.01;100.00;102082.88;1856862;75;86335;-77
2022/03/02 13:22:06;;;;;;;84.30;77.10;;;;;;;9.20;100.00;102070.50;1889098;74;86237;-78
2022/03/02 13:28:11;;;;;;;85.23;77.87;;;;;;;9.25;100.00;102070.61;1809506;78;86024;-78
2022/03/02 13:34:09;;;;;;;86.37;79.07;;;;;;;9.15;100.00;102067.66;1883177;74;86212;-79
2022/03/02 13:39:54;;;;;;;87.37;80.17;;;;;;;8.98;100.00;102067.59;1880092;74;86301;-78
2022/03/02 13:48:54;;;;;;;90.87;83.57;;;;;;;9.01;100.00;102053.77;1958404;72;86714;-78
2022/03/02 13:51:25;;;;;;;82.42;75.35;;;;;;;8.92;100.00;102060.23;1886401;73;936691;-76
2022/03/02 13:54:02;;;;;;;83.73;76.57;;;;;;;8.94;100.00;102060.82;1902504;74;936824;-76
2022/03/02 13:56:40;;;;;;;89.17;81.90;;;;;;;9.03;100.00;102051.58;1911152;71;938905;-78
2022/03/02 13:59:19;;;;;;;86.00;79.07;;;;;;;8.93;100.00;102055.55;1877244;72;939102;-76
2022/03/02 14:01:50;;;;;;;84.33;77.13;;;;;;;8.89;100.00;102052.42;1902958;73;938732;-76
2022/03/02 14:07:36;;;;;;;88.20;81.13;;;;;;;8.94;100.00;102041.42;1911018;73;85478;-76
2022/03/02 14:13:34;;;;;;;85.10;78.10;;;;;;;9.02;100.00;102041.06;1986301;70;39695;-77
2022/03/02 14:19:21;;;;;;;85.73;78.63;;;;;;;8.95;100.00;102029.26;1975338;71;39631;-78
2022/03/02 14:25:15;;;;;;;86.53;79.67;;;;;;;8.93;100.00;102017.59;1843203;76;86507;-78
2022/03/02 14:31:00;;;;;;;86.13;79.23;;;;;;;8.86;100.00;102016.87;1796148;78;85702;-76
2022/03/02 14:36:44;;;;;;;90.43;83.43;;;;;;;8.73;100.00;102012.99;1807376;77;86007;-76
2022/03/02 14:42:29;;;;;;;85.23;78.30;;;;;;;8.73;100.00;102005.25;1984165;71;40186;-76
2022/03/02 14:48:34;;;;;;;88.40;81.40;;;;;;;8.59;100.00;101997.75;1915867;74;86143;-76
2022/03/02 14:54:20;;;;;;;86.10;79.20;;;;;;;8.67;100.00;101992.67;1978153;71;39551;-76
2022/03/02 15:00:07;;;;;;;84.83;77.97;;;;;;;8.68;100.00;101987.98;1887682;74;86120;-77
2022/03/02 15:05:55;;;;;;;87.67;81.20;;;;;;;8.72;100.00;101978.63;1884408;74;86259;-77
2022/03/02 15:12:06;;;;;;;86.73;80.27;;;;;;;8.79;100.00;101977.39;1888804;74;86203;-76
2022/03/02 15:17:50;;;;;;;86.60;80.17;;;;;;;8.84;100.00;101971.12;1896944;73;86324;-75
2022/03/02 15:23:35;;;;;;;80.63;73.97;;;;;;;8.70;100.00;101969.17;1934690;73;86022;-77
2022/03/02 15:29:26;;;;;;;89.27;82.77;;;;;;;8.76;100.00;101968.73;1984636;71;39569;-76
2022/03/02 15:35:18;;;;;;;90.07;83.20;;;;;;;8.80;100.00;101960.23;1833994;76;86324;-75
2022/03/02 15:41:04;;;;;;;83.77;76.83;;;;;;;8.78;100.00;101957.70;1904598;74;86097;-77
2022/03/02 15:46:50;;;;;;;88.17;81.07;;;;;;;8.84;100.00;101953.95;1799060;77;85995;-78
2022/03/02 15:52:38;;;;;;;89.43;82.43;;;;;;;8.76;100.00;101950.20;1912835;73;86419;-76
2022/03/02 15:58:28;;;;;;;82.70;76.00;;;;;;;8.76;100.00;101946.58;1986689;71;39485;-77
2022/03/02 16:04:13;;;;;;;84.10;77.20;;;;;;;8.69;100.00;101938.39;2001156;70;86388;-77
2022/03/02 16:10:15;;;;;;;86.50;79.53;;;;;;;8.71;100.00;101933.47;1903654;74;86192;-75
2022/03/02 16:16:01;;;;;;;84.70;77.77;;;;;;;8.65;100.00;101934.44;1808689;78;86721;-76
2022/03/02 16:21:48;;;;;;;80.53;73.87;;;;;;;8.59;100.00;101934.05;1801576;77;86409;-76
2022/03/02 16:27:56;;;;;;;81.83;75.33;;;;;;;8.61;100.00;101929.94;1808586;77;86261;-76
2022/03/02 16:33:40;;;;;;;77.60;71.50;;;;;;;8.54;100.00;101932.56;1916833;73;86311;-75
2022/03/02 16:39:25;;;;;;;81.73;75.53;;;;;;;8.52;100.00;101937.48;1964982;71;39645;-77
2022/03/02 16:45:11;;;;;;;82.43;76.03;;;;;;;8.37;100.00;101931.64;1827000;76;85253;-75
2022/03/02 16:50:55;;;;;;;86.17;79.77;;;;;;;8.32;100.00;101939.29;1912380;74;85642;-77
2022/03/02 16:56:40;;;;;;;83.63;77.47;;;;;;;8.29;100.00;101949.48;1905343;72;86281;-76
2022/03/02 17:02:25;;;;;;;81.67;75.60;;;;;;;8.31;100.00;101947.83;1977043;71;39535;-77
2022/03/02 17:08:08;;;;;;;89.70;83.47;;;;;;;8.15;100.00;101951.63;1845666;76;86397;-78
2022/03/02 17:13:52;;;;;;;86.60;80.20;;;;;;;8.12;100.00;101942.97;1873904;75;86574;-77
2022/03/02 17:19:37;;;;;;;83.70;77.07;;;;;;;7.85;100.00;101938.47;1913486;74;86357;-77
2022/03/02 17:25:22;;;;;;;77.07;70.77;;;;;;;7.94;100.00;101944.48;1944649;71;39392;-76
2022/03/02 17:31:07;;;;;;;82.83;76.00;;;;;;;7.90;100.00;101939.98;1838183;76;86707;-76
2022/03/02 17:36:53;;;;;;;84.90;78.20;;;;;;;7.65;100.00;101933.84;1879843;75;85257;-74
2022/03/02 17:42:39;;;;;;;84.50;77.70;;;;;;;7.71;100.00;101939.23;1927413;73;86316;-75
2022/03/02 17:48:25;;;;;;;84.03;76.97;;;;;;;7.73;100.00;101935.70;1981057;70;39438;-76
2022/03/02 17:54:13;;;;;;;84.73;77.70;;;;;;;7.80;100.00;101931.42;1848735;76;86829;-79
2022/03/02 18:00:00;;;;;;;80.03;73.33;;;;;;;7.84;100.00;101945.07;1883383;74;86530;-75
2022/03/02 18:05:34;;;;;;;80.57;73.27;;;;;;;7.64;100.00;101941.83;1960226;72;109518;-79
2022/03/02 18:08:05;;;;;;;78.47;71.37;;;;;;;7.66;100.00;101950.70;1945255;72;936797;-75
2022/03/02 18:10:36;;;;;;;75.40;68.93;;;;;;;7.64;100.00;101947.36;1945321;73;938589;-79
2022/03/02 18:13:06;;;;;;;77.30;70.63;;;;;;;7.58;100.00;101942.23;1945305;73;936715;-73
2022/03/02 18:18:55;;;;;;;78.27;71.27;;;;;;;7.72;100.00;101931.79;1884980;75;86233;-74
2022/03/02 18:24:37;;;;;;;78.63;71.73;;;;;;;7.69;100.00;101921.22;1919127;72;85976;-75
2022/03/02 18:30:30;;;;;;;77.00;70.13;;;;;;;7.65;100.00;101913.95;1982353;71;39672;-82
2022/03/02 18:36:15;;;;;;;76.20;69.50;;;;;;;7.65;100.00;101908.41;1832995;75;85257;-80
2022/03/02 18:42:02;;;;;;;76.53;69.73;;;;;;;7.60;100.00;101904.14;1891010;74;86066;-75
2022/03/02 18:47:46;;;;;;;78.07;71.27;;;;;;;7.66;100.00;101891.25;1808346;77;86340;-73
2022/03/02 18:53:31;;;;;;;77.17;70.27;;;;;;;7.66;100.00;101896.78;1986165;71;39553;-77
2022/03/02 18:59:18;;;;;;;84.83;77.53;;;;;;;7.66;100.00;101894.86;1839956;76;86181;-69
2022/03/02 19:05:02;;;;;;;73.63;66.57;;;;;;;7.69;100.00;101901.86;1830257;76;85941;-73
2022/03/02 19:10:45;;;;;;;74.40;67.40;;;;;;;7.81;100.00;101903.23;1808524;76;86644;-69
2022/03/02 19:16:29;;;;;;;78.87;71.30;;;;;;;7.62;100.00;101894.20;1978557;71;39708;-72
2022/03/02 19:22:15;;;;;;;79.07;71.60;;;;;;;7.66;100.00;101884.34;1819527;76;86519;-72
2022/03/02 19:28:00;;;;;;;78.50;71.37;;;;;;;7.61;100.00;101882.33;1870753;75;86312;-67
2022/03/02 19:33:47;;;;;;;79.03;71.80;;;;;;;7.60;100.00;101875.11;1801446;77;86128;-74
2022/03/02 19:45:33;;;;;;;79.40;72.07;;;;;;;7.47;100.00;101875.34;1942193;73;85511;-68
2022/03/02 19:51:20;;;;;;;74.93;67.57;;;;;;;7.56;100.00;101862.00;1810367;78;86328;-69
2022/03/02 19:57:08;;;;;;;76.43;69.43;;;;;;;7.55;100.00;101866.69;1887810;74;86368;-71
2022/03/02 20:02:52;;;;;;;75.93;68.53;;;;;;;7.50;100.00;101863.80;1881442;75;86747;-73
2022/03/02 20:08:39;;;;;;;74.77;67.17;;;;;;;7.57;100.00;101861.73;1906320;73;85474;-71
2022/03/02 20:14:24;;;;;;;76.97;69.37;;;;;;;7.59;100.00;101854.59;1986539;70;39683;-72
2022/03/02 20:20:10;;;;;;;77.17;69.37;;;;;;;7.55;100.00;101850.63;1861552;76;86204;-70
2022/03/02 20:25:55;;;;;;;80.67;72.80;;;;;;;7.58;100.00;101848.22;1872972;74;86706;-72
2022/03/02 20:31:40;;;;;;;76.60;68.93;;;;;;;7.49;100.00;101837.22;1915503;73;86088;-71
2022/03/02 20:37:24;;;;;;;81.70;73.20;;;;;;;7.60;100.00;101825.34;1974345;71;42290;-71
2022/03/02 20:43:09;;;;;;;81.77;73.83;;;;;;;7.57;100.00;101828.56;1831560;76;86493;-69
2022/03/02 20:48:54;;;;;;;81.63;73.67;;;;;;;7.55;100.00;101821.61;1881418;73;86343;-71
2022/03/02 20:54:38;;;;;;;80.80;72.80;;;;;;;7.61;100.00;101817.34;1911000;72;86081;-72
2022/03/02 21:00:24;;;;;;;79.67;71.30;;;;;;;7.62;100.00;101811.25;1976363;71;39426;-71
2022/03/02 21:06:07;;;;;;;85.70;77.43;;;;;;;7.62;100.00;101810.71;1857335;76;86562;-69
2022/03/02 21:11:51;;;;;;;84.33;76.00;;;;;;;7.64;100.00;101807.17;1871507;76;86616;-70
2022/03/02 21:17:37;;;;;;;85.13;76.37;;;;;;;7.65;100.00;101808.02;1928363;73;86321;-69
2022/03/02 21:23:24;;;;;;;86.33;77.80;;;;;;;7.66;100.00;101802.77;1986489;71;39703;-67
2022/03/02 21:29:08;;;;;;;87.50;78.57;;;;;;;7.61;100.00;101805.45;1836465;76;86526;-69
2022/03/02 21:34:53;;;;;;;88.23;79.23;;;;;;;7.64;100.00;101804.95;1886103;73;85477;-70
2022/03/02 21:40:39;;;;;;;88.03;78.67;;;;;;;7.62;100.00;101805.72;1936822;72;86454;-69
2022/03/02 21:46:27;;;;;;;87.97;78.47;;;;;;;7.62;100.00;101806.56;1926608;71;39467;-69
2022/03/02 21:52:11;;;;;;;85.93;77.03;;;;;;;7.61;100.00;101797.99;1971922;71;85384;-69
2022/03/02 21:57:56;;;;;;;94.27;84.63;;;;;;;7.74;100.00;101792.74;1903729;73;86096;-68
2022/03/02 22:03:47;;;;;;;91.43;82.13;;;;;;;7.75;100.00;101801.31;1824016;77;86278;-69
2022/03/02 22:09:30;;;;;;;93.90;84.13;;;;;;;7.66;100.00;101795.31;1986416;71;39561;-68
2022/03/02 22:15:14;;;;;;;92.60;83.00;;;;;;;7.59;100.00;101796.00;1839130;76;86588;-69
2022/03/02 22:20:58;;;;;;;93.93;83.93;;;;;;;7.60;100.00;101789.39;1870789;75;86385;-68
2022/03/02 22:26:42;;;;;;;96.33;86.10;;;;;;;7.62;100.00;101789.13;1810231;77;86481;-70
2022/03/02 22:32:27;;;;;;;100.60;90.30;;;;;;;7.67;100.00;101780.41;1986795;71;39761;-73
2022/03/02 22:38:13;;;;;;;102.27;91.50;;;;;;;7.55;100.00;101776.83;1946708;72;86114;-69
2022/03/02 22:43:58;;;;;;;101.20;90.40;;;;;;;7.51;100.00;101772.03;1886826;73;86645;-73
2022/03/02 22:49:42;;;;;;;105.03;93.93;;;;;;;7.51;100.00;101754.91;1801099;77;86398;-73
2022/03/02 22:55:28;;;;;;;104.20;93.40;;;;;;;7.42;100.00;101760.50;1983117;71;39546;-68
2022/03/02 23:01:21;;;;;;;106.93;95.83;;;;;;;7.41;100.00;101758.81;1972582;71;86674;-73
2022/03/02 23:19:12;;;;;;;102.70;92.53;;;;;;;7.26;100.00;101730.84;1831033;76;86609;-68
2022/03/02 23:24:56;;;;;;;99.47;89.17;;;;;;;7.12;100.00;101736.31;1884012;74;86311;-73
2022/03/02 23:30:41;;;;;;;104.20;93.37;;;;;;;7.28;100.00;101748.00;1860654;73;86704;-68
2022/03/02 23:36:24;;;;;;;103.47;92.80;;;;;;;7.12;100.00;101750.97;1931298;71;39580;-68
2022/03/02 23:42:15;;;;;;;100.80;90.27;;;;;;;7.11;100.00;101746.52;1868866;74;85354;-73
2022/03/02 23:48:00;;;;;;;103.07;92.33;;;;;;;7.06;100.00;101744.20;1905832;73;86295;-68
2022/03/02 23:53:44;;;;;;;106.57;95.17;;;;;;;6.99;100.00;101740.16;1803812;77;86602;-68
2022/03/02 23:59:28;;;;;;;103.03;92.13;;;;;;;6.99;100.00;101726.34;1933547;71;39457;-69
